Time;durP1;ratioP1;P1;durP2;ratioP2;P2;SDS_P1;SDS_P2;PMS_P1;PMS_P2;Temp;Humidity;BMP_temperature;BMP_pressure;BME280_temperature;BME280_humidity;BME280_pressure;Samples;Min_cycle;Max_cycle;Signal;HPM_P1;HPM_P2
2023/06/18 00:01:47;;;;;;;7.00;5.93;;;;;;;-146.25;100.00;57403.91;5028776;28;20298;-85
2023/06/18 00:05:13;;;;;;;7.85;4.85;;;;;;;-146.25;100.00;57403.91;5028928;28;20737;-86
2023/06/18 00:08:40;;;;;;;9.15;5.30;;;;;;;-146.25;100.00;57403.91;5029072;28;20589;-86
2023/06/18 00:12:07;;;;;;;7.53;5.35;;;;;;;-146.25;100.00;57403.91;5030076;28;20228;-86
2023/06/18 00:15:32;;;;;;;7.90;5.45;;;;;;;-146.25;100.00;57403.91;5029578;28;20609;-85
2023/06/18 00:18:58;;;;;;;5.28;4.63;;;;;;;-146.25;100.00;57403.91;5029419;28;20240;-85
2023/06/18 00:22:23;;;;;;;12.00;5.72;;;;;;;-146.25;100.00;57403.91;5029053;28;20213;-84
2023/06/18 00:25:50;;;;;;;8.27;5.72;;;;;;;-146.25;100.00;57403.91;5028973;28;20213;-86
2023/06/18 00:29:16;;;;;;;8.15;6.75;;;;;;;-146.25;100.00;57403.91;5029540;28;20201;-85
2023/06/18 00:32:44;;;;;;;7.70;5.65;;;;;;;-146.25;100.00;57403.91;5028522;28;20287;-85
2023/06/18 00:36:09;;;;;;;10.68;7.03;;;;;;;-146.25;100.00;57403.91;5027907;28;20208;-85
2023/06/18 00:39:35;;;;;;;7.38;5.63;;;;;;;-146.25;100.00;57403.91;5029094;28;20294;-86
2023/06/18 00:43:03;;;;;;;11.10;6.85;;;;;;;-146.25;100.00;57403.91;5028381;28;20208;-84
2023/06/18 00:46:30;;;;;;;9.50;5.63;;;;;;;-146.25;100.00;57403.91;5028060;28;20211;-83
2023/06/18 00:49:56;;;;;;;8.15;5.40;;;;;;;-146.25;100.00;57403.91;5028783;28;20738;-85
2023/06/18 00:53:22;;;;;;;7.70;6.47;;;;;;;-146.25;100.00;57403.91;5028514;28;20295;-86
2023/06/18 00:56:50;;;;;;;14.50;6.68;;;;;;;-146.25;100.00;57403.91;5027770;28;20309;-83
2023/06/18 01:00:20;;;;;;;7.65;5.70;;;;;;;-146.25;100.00;57403.91;5028354;28;20320;-85
2023/06/18 01:03:47;;;;;;;8.45;6.40;;;;;;;-146.25;100.00;57403.91;5029182;28;20220;-85
2023/06/18 01:07:14;;;;;;;6.50;5.80;;;;;;;-146.25;100.00;57403.91;5028186;28;20267;-84
2023/06/18 01:10:41;;;;;;;16.02;6.65;;;;;;;-146.25;100.00;57403.91;5028879;28;20198;-85
2023/06/18 01:14:09;;;;;;;8.82;5.80;;;;;;;-146.25;100.00;57403.91;5028962;28;20300;-86
2023/06/18 01:17:37;;;;;;;7.93;5.45;;;;;;;-146.25;100.00;57403.91;5028590;28;20735;-86
2023/06/18 01:21:07;;;;;;;9.25;6.15;;;;;;;-146.25;100.00;57403.91;5028668;28;20202;-86
2023/06/18 01:24:40;;;;;;;11.95;7.60;;;;;;;-146.25;100.00;57403.91;5047292;28;20225;-84
2023/06/18 01:28:07;;;;;;;12.60;7.45;;;;;;;-146.25;100.00;57403.91;5048375;28;20208;-85
2023/06/18 01:31:36;;;;;;;10.45;6.63;;;;;;;-146.25;100.00;57403.91;5048010;28;20239;-84
2023/06/18 01:35:03;;;;;;;8.90;6.28;;;;;;;-146.25;100.00;57403.91;5048253;28;20620;-84
2023/06/18 01:38:40;;;;;;;8.98;6.25;;;;;;;-146.25;100.00;57403.91;5048107;28;20215;-85
2023/06/18 01:42:14;;;;;;;10.18;7.25;;;;;;;-146.25;100.00;57403.91;5048145;28;20348;-85
2023/06/18 01:45:44;;;;;;;11.13;7.00;;;;;;;-146.25;100.00;57403.91;5047189;28;20189;-84
2023/06/18 01:49:12;;;;;;;13.82;7.63;;;;;;;-146.25;100.00;57403.91;5051245;28;20197;-85
2023/06/18 01:52:41;;;;;;;8.85;5.78;;;;;;;-146.25;100.00;57403.91;5051806;28;20419;-86
2023/06/18 01:56:09;;;;;;;10.13;6.43;;;;;;;-146.25;100.00;57403.91;5052215;28;20262;-87
2023/06/18 01:59:34;;;;;;;12.05;7.85;;;;;;;-146.25;100.00;57403.91;5052515;28;20238;-85
2023/06/18 02:03:00;;;;;;;16.67;8.00;;;;;;;-146.25;100.00;57403.91;5052223;28;20735;-86
2023/06/18 02:06:27;;;;;;;10.93;6.93;;;;;;;-146.25;100.00;57403.91;5051874;28;20197;-85
2023/06/18 02:09:53;;;;;;;12.25;7.60;;;;;;;-146.25;100.00;57403.91;5053267;28;20646;-85
2023/06/18 02:13:19;;;;;;;19.77;8.73;;;;;;;-146.25;100.00;57403.91;5051475;28;20228;-85
2023/06/18 02:16:44;;;;;;;11.32;7.00;;;;;;;-146.25;100.00;57403.91;5052015;28;20749;-85
2023/06/18 02:20:10;;;;;;;9.80;7.35;;;;;;;-146.25;100.00;57403.91;5051350;28;20723;-86
2023/06/18 02:23:38;;;;;;;10.35;7.38;;;;;;;-146.25;100.00;57403.91;5040158;28;20237;-85
2023/06/18 02:27:03;;;;;;;12.00;6.90;;;;;;;-146.25;100.00;57403.91;5031732;28;20234;-87
2023/06/18 02:30:29;;;;;;;14.85;6.97;;;;;;;-146.25;100.00;57403.91;5031252;28;20224;-85
2023/06/18 02:33:55;;;;;;;11.82;7.70;;;;;;;-146.25;100.00;57403.91;5032885;28;20192;-84
2023/06/18 02:37:20;;;;;;;9.45;6.80;;;;;;;-146.25;100.00;57403.91;5044485;28;20214;-85
2023/06/18 02:40:47;;;;;;;14.73;7.30;;;;;;;-146.25;100.00;57403.91;5055128;28;20243;-85
2023/06/18 02:44:13;;;;;;;12.18;7.57;;;;;;;-146.25;100.00;57403.91;5030459;28;20215;-86
2023/06/18 02:47:39;;;;;;;10.35;7.32;;;;;;;-146.25;100.00;57403.91;5031878;28;20224;-87
2023/06/18 02:51:05;;;;;;;10.07;6.03;;;;;;;-146.25;100.00;57403.91;5031403;28;20234;-85
2023/06/18 02:54:31;;;;;;;11.75;7.38;;;;;;;-146.25;100.00;57403.91;5051132;28;20634;-86
2023/06/18 02:57:58;;;;;;;11.98;7.55;;;;;;;-146.25;100.00;57403.91;5050840;28;20204;-86
2023/06/18 03:01:24;;;;;;;11.27;7.57;;;;;;;-146.25;100.00;57403.91;5050806;28;20309;-86
2023/06/18 03:04:50;;;;;;;13.20;6.50;;;;;;;-146.25;100.00;57403.91;5050754;28;20287;-86
2023/06/18 03:08:16;;;;;;;10.80;7.55;;;;;;;-146.25;100.00;57403.91;5051716;28;20290;-86
2023/06/18 03:11:42;;;;;;;11.15;7.47;;;;;;;-146.25;100.00;57403.91;5051154;28;20311;-85
2023/06/18 03:15:09;;;;;;;9.52;6.40;;;;;;;-146.25;100.00;57403.91;5051205;28;20754;-86
2023/06/18 03:18:35;;;;;;;11.02;6.55;;;;;;;-146.25;100.00;57403.91;5049782;28;20208;-86
2023/06/18 03:22:00;;;;;;;10.65;7.07;;;;;;;-146.25;100.00;57403.91;5050245;28;20230;-87
2023/06/18 03:25:26;;;;;;;9.02;6.15;;;;;;;-146.25;100.00;57403.91;5030188;28;20218;-85
2023/06/18 03:28:51;;;;;;;9.55;6.70;;;;;;;-146.25;100.00;57403.91;5029836;28;20215;-85
2023/06/18 03:32:19;;;;;;;12.02;5.57;;;;;;;-146.25;100.00;57403.91;5029557;28;20190;-84
2023/06/18 03:35:46;;;;;;;8.20;6.63;;;;;;;-146.25;100.00;57403.91;5030433;28;20234;-85
2023/06/18 03:39:12;;;;;;;10.13;7.88;;;;;;;-146.25;100.00;57403.91;5030436;28;20239;-87
2023/06/18 03:42:40;;;;;;;12.02;7.00;;;;;;;-146.25;100.00;57403.91;5029591;28;20212;-86
2023/06/18 03:46:06;;;;;;;10.73;7.30;;;;;;;-146.25;100.00;57403.91;5030085;28;20291;-86
2023/06/18 03:49:33;;;;;;;12.88;6.90;;;;;;;-146.25;100.00;57403.91;5030326;28;20310;-85
2023/06/18 03:52:58;;;;;;;11.23;6.47;;;;;;;-146.25;100.00;57403.91;5037103;28;20236;-86
2023/06/18 03:56:24;;;;;;;9.85;6.72;;;;;;;-146.25;100.00;57403.91;5049611;28;20275;-84
2023/06/18 03:59:51;;;;;;;11.90;7.38;;;;;;;-146.25;100.00;57403.91;5049811;28;20687;-86
2023/06/18 04:03:17;;;;;;;9.85;6.60;;;;;;;-146.25;100.00;57403.91;5049422;28;20650;-87
2023/06/18 04:06:44;;;;;;;12.07;7.70;;;;;;;-146.25;100.00;57403.91;5048908;28;20203;-85
2023/06/18 04:10:09;;;;;;;8.05;6.28;;;;;;;-146.25;100.00;57403.91;5050033;28;20278;-85
2023/06/18 04:13:35;;;;;;;13.73;7.10;;;;;;;-146.25;100.00;57403.91;5049369;28;20743;-86
2023/06/18 04:17:00;;;;;;;10.00;6.03;;;;;;;-146.25;100.00;57403.91;5049744;28;20214;-86
2023/06/18 04:20:26;;;;;;;10.63;7.63;;;;;;;-146.25;100.00;57403.91;5049168;28;20201;-86
2023/06/18 04:23:53;;;;;;;8.13;6.13;;;;;;;-146.25;100.00;57403.91;5049654;28;20214;-85
2023/06/18 04:27:19;;;;;;;10.82;7.68;;;;;;;-146.25;100.00;57403.91;5049403;28;20223;-87
2023/06/18 04:30:45;;;;;;;10.45;7.32;;;;;;;-146.25;100.00;57403.91;5048712;28;20305;-85
2023/06/18 04:34:10;;;;;;;20.95;6.70;;;;;;;-146.25;100.00;57403.91;5048857;28;20257;-86
2023/06/18 04:37:37;;;;;;;10.40;6.32;;;;;;;-146.25;100.00;57403.91;5049207;28;20214;-84
2023/06/18 04:41:04;;;;;;;11.95;6.88;;;;;;;-146.25;100.00;57403.91;5048066;28;20714;-84
2023/06/18 04:44:30;;;;;;;13.15;7.00;;;;;;;-146.25;100.00;57403.91;5049541;28;20201;-86
2023/06/18 04:47:56;;;;;;;10.23;7.35;;;;;;;-146.25;100.00;57403.91;5048374;28;20619;-85
2023/06/18 04:51:23;;;;;;;9.02;5.82;;;;;;;-146.25;100.00;57403.91;5049221;28;20300;-86
2023/06/18 04:54:49;;;;;;;10.70;6.82;;;;;;;-146.25;100.00;57403.91;5048659;28;20869;-85
2023/06/18 04:58:16;;;;;;;9.75;6.57;;;;;;;-146.25;100.00;57403.91;5048951;28;20206;-85
2023/06/18 05:01:41;;;;;;;8.52;5.72;;;;;;;-146.25;100.00;57403.91;5049144;28;20237;-86
2023/06/18 05:05:08;;;;;;;8.13;5.93;;;;;;;-146.25;100.00;57403.91;5048080;28;20194;-86
2023/06/18 05:08:33;;;;;;;9.77;6.22;;;;;;;-146.25;100.00;57403.91;5049119;28;20688;-85
2023/06/18 05:11:59;;;;;;;8.30;6.95;;;;;;;-146.25;100.00;57403.91;5049177;28;20591;-86
2023/06/18 05:15:26;;;;;;;7.75;5.90;;;;;;;-146.25;100.00;57403.91;5048948;28;20205;-84
2023/06/18 05:18:51;;;;;;;8.52;6.22;;;;;;;-146.25;100.00;57403.91;5047914;28;20201;-84
2023/06/18 05:22:17;;;;;;;7.85;6.30;;;;;;;-146.25;100.00;57403.91;5048987;28;20231;-85
2023/06/18 05:25:43;;;;;;;6.50;5.82;;;;;;;-146.25;100.00;57403.91;5052669;28;20404;-86
2023/06/18 05:29:09;;;;;;;6.80;5.60;;;;;;;-146.25;100.00;57403.91;5053655;28;20302;-86
2023/06/18 05:32:36;;;;;;;11.32;6.55;;;;;;;-146.25;100.00;57403.91;5052780;28;20209;-85
2023/06/18 05:36:03;;;;;;;8.43;6.38;;;;;;;-146.25;100.00;57403.91;5053447;28;20206;-86
2023/06/18 05:39:28;;;;;;;8.60;6.47;;;;;;;-146.25;100.00;57403.91;5052126;28;20256;-85
2023/06/18 05:42:54;;;;;;;8.07;5.72;;;;;;;-146.25;100.00;57403.91;5044979;28;20231;-86
2023/06/18 05:46:20;;;;;;;9.15;6.10;;;;;;;-146.25;100.00;57403.91;5044863;28;20213;-87
2023/06/18 05:49:47;;;;;;;6.88;6.15;;;;;;;-146.25;100.00;57403.91;5032129;28;20238;-86
2023/06/18 05:53:53;;;;;;;5.75;5.25;;;;;;;-146.25;100.00;57403.91;5032126;28;20225;-85
2023/06/18 05:57:19;;;;;;;9.48;6.47;;;;;;;-146.25;100.00;57403.91;5031654;28;20208;-85
2023/06/18 06:00:45;;;;;;;8.02;6.20;;;;;;;-146.25;100.00;57403.91;5031790;28;20227;-86
2023/06/18 06:04:12;;;;;;;7.75;6.43;;;;;;;-146.25;100.00;57403.91;5032539;28;20241;-86
2023/06/18 06:07:37;;;;;;;9.95;6.38;;;;;;;-146.25;100.00;57403.91;5032360;28;20207;-86
2023/06/18 06:11:03;;;;;;;6.75;6.03;;;;;;;-146.25;100.00;57403.91;5035952;28;20298;-86
2023/06/18 06:14:29;;;;;;;11.15;7.13;;;;;;;-146.25;100.00;57403.91;5032869;28;20205;-86
2023/06/18 06:17:55;;;;;;;7.72;5.68;;;;;;;-146.25;100.00;57403.91;5031442;28;20580;-85
2023/06/18 06:21:22;;;;;;;7.53;5.55;;;;;;;-146.25;100.00;57403.91;5031665;28;20206;-86
2023/06/18 06:24:47;;;;;;;9.05;6.20;;;;;;;-146.25;100.00;57403.91;5031540;28;20679;-86
2023/06/18 06:28:14;;;;;;;7.47;6.20;;;;;;;-146.25;100.00;57403.91;5031211;28;20207;-85
2023/06/18 06:31:39;;;;;;;12.60;7.50;;;;;;;-146.25;100.00;57403.91;5031400;28;20214;-87
2023/06/18 06:35:05;;;;;;;8.48;6.85;;;;;;;-146.25;100.00;57403.91;5031558;28;20557;-85
2023/06/18 06:38:41;;;;;;;8.50;6.45;;;;;;;-146.25;100.00;57403.91;5030914;28;20680;-85
2023/06/18 06:42:07;;;;;;;7.57;5.35;;;;;;;-146.25;100.00;57403.91;5030818;28;20625;-88
2023/06/18 06:45:35;;;;;;;8.85;6.05;;;;;;;-146.25;100.00;57403.91;5031344;28;20621;-85
2023/06/18 06:49:03;;;;;;;7.90;6.00;;;;;;;-146.25;100.00;57403.91;5034183;28;20201;-86
2023/06/18 06:52:34;;;;;;;11.07;6.05;;;;;;;-146.25;100.00;57403.91;5039152;28;20666;-86
2023/06/18 06:56:03;;;;;;;7.95;5.63;;;;;;;-146.25;100.00;57403.91;5052683;28;20308;-85
2023/06/18 06:59:29;;;;;;;7.05;5.13;;;;;;;-146.25;100.00;57403.91;5051121;28;20203;-86
2023/06/18 07:02:55;;;;;;;11.70;6.43;;;;;;;-146.25;100.00;57403.91;5051147;28;20266;-85
2023/06/18 07:06:21;;;;;;;6.10;5.43;;;;;;;-146.25;100.00;57403.91;5051167;28;20215;-86
2023/06/18 07:09:46;;;;;;;6.63;5.93;;;;;;;-146.25;100.00;57403.91;5051124;28;20570;-87
2023/06/18 07:13:13;;;;;;;7.15;6.20;;;;;;;-146.25;100.00;57403.91;5050178;28;20239;-86
2023/06/18 07:16:43;;;;;;;6.13;5.63;;;;;;;-146.25;100.00;57403.91;5050608;28;20626;-86
2023/06/18 07:20:29;;;;;;;6.18;5.32;;;;;;;-146.25;100.00;57403.91;5050521;28;20233;-86
2023/06/18 07:23:55;;;;;;;7.07;5.22;;;;;;;-146.25;100.00;57403.91;5049490;28;20231;-87
2023/06/18 07:27:25;;;;;;;7.03;5.22;;;;;;;-146.25;100.00;57403.91;5049159;28;20668;-87
2023/06/18 07:30:57;;;;;;;7.03;5.28;;;;;;;-146.25;100.00;57403.91;5033538;28;20263;-88
2023/06/18 07:34:23;;;;;;;6.03;4.90;;;;;;;-146.25;100.00;57403.91;5044353;28;20211;-87
2023/06/18 07:37:49;;;;;;;6.13;5.53;;;;;;;-146.25;100.00;57403.91;5037411;28;20211;-86
2023/06/18 07:41:16;;;;;;;6.60;4.88;;;;;;;-146.25;100.00;57403.91;5039625;28;20211;-87
2023/06/18 07:44:43;;;;;;;7.40;5.60;;;;;;;-146.25;100.00;57403.91;5043811;28;20253;-87
2023/06/18 07:48:09;;;;;;;5.80;5.30;;;;;;;-146.25;100.00;57403.91;5046223;28;20646;-86
2023/06/18 07:51:39;;;;;;;5.72;5.10;;;;;;;-146.25;100.00;57403.91;5050513;28;20288;-85
2023/06/18 07:55:05;;;;;;;6.13;5.15;;;;;;;-146.25;100.00;57403.91;5049342;28;20206;-86
2023/06/18 07:58:31;;;;;;;7.10;5.03;;;;;;;-146.25;100.00;57403.91;5048840;28;20199;-85
2023/06/18 08:01:58;;;;;;;5.57;4.93;;;;;;;-146.25;100.00;57403.91;5048704;28;20325;-86
2023/06/18 08:05:25;;;;;;;5.30;4.80;;;;;;;-146.25;100.00;57403.91;5049911;28;20648;-86
2023/06/18 08:08:51;;;;;;;6.13;5.00;;;;;;;-146.25;100.00;57403.91;5049206;28;20196;-87
2023/06/18 08:12:18;;;;;;;4.95;4.45;;;;;;;-146.25;100.00;57403.91;5049327;28;20219;-86
2023/06/18 08:15:45;;;;;;;6.57;4.30;;;;;;;-146.25;100.00;57403.91;5052119;28;20277;-86
2023/06/18 08:19:16;;;;;;;5.72;4.63;;;;;;;-146.25;100.00;57403.91;5029756;28;20196;-86
2023/06/18 08:23:09;;;;;;;5.28;4.38;;;;;;;-146.25;100.00;57403.91;5030898;28;20645;-85
2023/06/18 08:26:37;;;;;;;6.22;4.80;;;;;;;-146.25;100.00;57403.91;5028499;28;20649;-86
2023/06/18 08:30:05;;;;;;;4.97;4.50;;;;;;;-146.25;100.00;57403.91;5032119;28;20243;-87
2023/06/18 08:33:32;;;;;;;5.35;4.82;;;;;;;-146.25;100.00;57403.91;5047958;28;20287;-86
2023/06/18 08:36:59;;;;;;;4.30;3.90;;;;;;;-146.25;100.00;57403.91;5037142;28;20227;-84
2023/06/18 08:40:25;;;;;;;9.43;4.60;;;;;;;-146.25;100.00;57403.91;5046561;28;20247;-85
2023/06/18 08:43:51;;;;;;;6.88;4.30;;;;;;;-146.25;100.00;57403.91;5038287;28;20239;-87
2023/06/18 08:47:17;;;;;;;4.63;4.22;;;;;;;-146.25;100.00;57403.91;5044750;28;20231;-87
2023/06/18 08:50:45;;;;;;;4.72;4.32;;;;;;;-146.25;100.00;57403.91;5046450;28;20739;-86
2023/06/18 08:54:14;;;;;;;4.43;3.92;;;;;;;-146.25;100.00;57403.91;5047173;28;20231;-86
2023/06/18 08:57:44;;;;;;;5.18;4.78;;;;;;;-146.25;100.00;57403.91;5044751;28;20357;-85
2023/06/18 09:01:14;;;;;;;6.15;4.90;;;;;;;-146.25;100.00;57403.91;5046689;28;20288;-87
2023/06/18 09:04:41;;;;;;;5.40;4.95;;;;;;;-146.25;100.00;57403.91;5047262;28;20243;-86
2023/06/18 09:08:08;;;;;;;5.10;4.60;;;;;;;-146.25;100.00;57403.91;5048409;28;20234;-88
2023/06/18 09:11:34;;;;;;;8.13;4.60;;;;;;;-146.25;100.00;57403.91;5066435;28;20320;-85
2023/06/18 09:14:59;;;;;;;5.60;4.43;;;;;;;-146.25;100.00;57403.91;5068588;28;20230;-87
2023/06/18 09:18:25;;;;;;;5.60;4.28;;;;;;;-146.25;100.00;57403.91;5039292;28;20247;-85
2023/06/18 09:21:52;;;;;;;4.47;3.80;;;;;;;-146.25;100.00;57403.91;5051388;28;20211;-87
2023/06/18 09:25:23;;;;;;;4.95;4.55;;;;;;;-146.25;100.00;57403.91;5027502;28;20236;-88
2023/06/18 09:28:50;;;;;;;4.97;4.35;;;;;;;-146.25;100.00;57403.91;5047258;28;20264;-85
2023/06/18 09:32:23;;;;;;;4.78;4.25;;;;;;;-146.25;100.00;57403.91;5047730;28;20246;-85
2023/06/18 09:35:58;;;;;;;4.25;3.85;;;;;;;-146.25;100.00;57403.91;5046361;28;20574;-85
2023/06/18 09:43:36;;;;;;;4.55;3.88;;;;;;;-146.25;100.00;57403.91;5041881;28;20200;-87
2023/06/18 09:47:10;;;;;;;5.45;4.20;;;;;;;-146.25;100.00;57403.91;5047267;28;20211;-86
2023/06/18 09:50:37;;;;;;;3.28;2.97;;;;;;;-146.25;100.00;57403.91;5044581;28;20239;-86
2023/06/18 09:54:03;;;;;;;3.38;3.17;;;;;;;-146.25;100.00;57403.91;5045694;28;20262;-85
2023/06/18 09:57:49;;;;;;;5.15;4.28;;;;;;;-146.25;100.00;57403.91;5045448;28;20196;-87
2023/06/18 10:01:19;;;;;;;4.45;3.97;;;;;;;-146.25;100.00;57403.91;5044794;28;20203;-87
2023/06/18 10:04:54;;;;;;;4.05;3.75;;;;;;;-146.25;100.00;57403.91;5046113;28;20238;-88
2023/06/18 10:08:21;;;;;;;4.38;3.83;;;;;;;-146.25;100.00;57403.91;5046518;28;20218;-86
2023/06/18 10:11:49;;;;;;;5.85;3.40;;;;;;;-146.25;100.00;57403.91;5050663;28;20204;-88
2023/06/18 10:15:20;;;;;;;3.95;3.63;;;;;;;-146.25;100.00;57403.91;5050110;28;20308;-87
2023/06/18 10:18:52;;;;;;;3.35;3.15;;;;;;;-146.25;100.00;57403.91;5051310;28;20203;-87
2023/06/18 10:22:19;;;;;;;7.75;3.38;;;;;;;-146.25;100.00;57403.91;5049605;28;20215;-86
2023/06/18 10:25:48;;;;;;;3.65;3.45;;;;;;;-146.25;100.00;57403.91;5049843;28;20745;-86
2023/06/18 10:29:14;;;;;;;4.03;3.72;;;;;;;-146.25;100.00;57403.91;5050456;28;20289;-86
2023/06/18 10:32:43;;;;;;;4.03;3.58;;;;;;;-146.25;100.00;57403.91;5049734;28;20667;-87
2023/06/18 10:36:10;;;;;;;3.90;3.33;;;;;;;-146.25;100.00;57403.91;5049757;28;20658;-86
2023/06/18 10:39:36;;;;;;;4.20;3.80;;;;;;;-146.25;100.00;57403.91;5050107;28;20200;-87
2023/06/18 10:43:11;;;;;;;4.40;4.10;;;;;;;-146.25;100.00;57403.91;5050172;28;20204;-86
2023/06/18 10:46:37;;;;;;;3.25;3.03;;;;;;;-146.25;100.00;57403.91;5048712;28;20635;-86
2023/06/18 10:50:16;;;;;;;4.75;3.60;;;;;;;-146.25;100.00;57403.91;5049912;28;20266;-86
2023/06/18 10:53:43;;;;;;;3.25;3.05;;;;;;;-146.25;100.00;57403.91;5049212;28;20211;-88
2023/06/18 10:57:09;;;;;;;3.38;3.08;;;;;;;-146.25;100.00;57403.91;5049266;28;20318;-87
2023/06/18 11:00:37;;;;;;;3.85;3.10;;;;;;;-146.25;100.00;57403.91;5049402;28;20299;-87
2023/06/18 11:04:06;;;;;;;3.22;3.00;;;;;;;-146.25;100.00;57403.91;5050205;28;20215;-86
2023/06/18 11:07:40;;;;;;;4.55;3.05;;;;;;;-146.25;100.00;57403.91;5049400;28;20253;-86
2023/06/18 11:11:07;;;;;;;3.45;3.15;;;;;;;-146.25;100.00;57403.91;5049396;28;20606;-87
2023/06/18 11:14:38;;;;;;;2.83;2.63;;;;;;;-146.25;100.00;57403.91;5049028;28;20215;-87
2023/06/18 11:18:10;;;;;;;6.70;3.45;;;;;;;-146.25;100.00;57403.91;5049091;28;20282;-86
2023/06/18 11:21:45;;;;;;;2.70;2.60;;;;;;;-146.25;100.00;57403.91;5047572;28;20246;-87
2023/06/18 11:25:14;;;;;;;3.25;3.05;;;;;;;-146.25;100.00;57403.91;5048306;28;20239;-86
2023/06/18 11:29:04;;;;;;;;;;;;;;;;;;;;;
2023/06/18 11:32:48;;;;;;;3.58;3.25;;;;;;;-146.25;100.00;57403.91;5048508;28;20199;-86
2023/06/18 11:36:18;;;;;;;3.17;2.47;;;;;;;-146.25;100.00;57403.91;5048311;28;20203;-87
2023/06/18 11:39:45;;;;;;;2.90;2.67;;;;;;;-146.25;100.00;57403.91;5048605;28;20684;-87
2023/06/18 11:43:13;;;;;;;2.70;2.50;;;;;;;-146.25;100.00;57403.91;5047757;28;20207;-86
2023/06/18 11:46:39;;;;;;;3.15;2.95;;;;;;;-146.25;100.00;57403.91;5048925;28;20231;-86
2023/06/18 11:50:11;;;;;;;3.40;3.10;;;;;;;-146.25;100.00;57403.91;5047773;28;20265;-87
2023/06/18 11:53:37;;;;;;;3.38;3.08;;;;;;;-146.25;100.00;57403.91;5048493;28;20284;-87
2023/06/18 11:57:05;;;;;;;3.08;2.88;;;;;;;-146.25;100.00;57403.91;5048321;28;20207;-85
2023/06/18 12:00:32;;;;;;;3.60;3.30;;;;;;;-146.25;100.00;57403.91;5049055;28;20207;-86
2023/06/18 12:04:03;;;;;;;2.92;2.72;;;;;;;-146.25;100.00;57403.91;5047542;28;20214;-86
2023/06/18 12:07:29;;;;;;;3.55;3.35;;;;;;;-146.25;100.00;57403.91;5048388;28;20230;-86
2023/06/18 12:10:58;;;;;;;3.38;3.17;;;;;;;-146.25;100.00;57403.91;5047637;28;20239;-87
2023/06/18 12:14:32;;;;;;;3.15;2.88;;;;;;;-146.25;100.00;57403.91;5047732;28;20723;-86
2023/06/18 12:18:05;;;;;;;2.65;2.55;;;;;;;-146.25;100.00;57403.91;5047972;28;20222;-86
2023/06/18 12:21:31;;;;;;;3.05;2.85;;;;;;;-146.25;100.00;57403.91;5047106;28;20187;-87
2023/06/18 12:24:57;;;;;;;2.72;2.60;;;;;;;-146.25;100.00;57403.91;5047496;28;20562;-86
2023/06/18 12:28:24;;;;;;;3.15;2.85;;;;;;;-146.25;100.00;57403.91;5047825;28;20206;-86
2023/06/18 12:32:08;;;;;;;2.80;2.60;;;;;;;-146.25;100.00;57403.91;5046925;28;20692;-87
2023/06/18 12:35:34;;;;;;;3.30;3.00;;;;;;;-146.25;100.00;57403.91;5047720;28;20572;-86
2023/06/18 12:39:01;;;;;;;6.65;3.17;;;;;;;-146.25;100.00;57403.91;5048295;28;20199;-86
2023/06/18 12:42:26;;;;;;;3.20;2.90;;;;;;;-146.25;100.00;57403.91;5046536;28;20207;-86
2023/06/18 12:45:53;;;;;;;4.57;2.47;;;;;;;-146.25;100.00;57403.91;5047041;28;20718;-87
2023/06/18 12:49:19;;;;;;;5.38;2.78;;;;;;;-146.25;100.00;57403.91;5047028;28;20614;-86
2023/06/18 12:52:45;;;;;;;2.97;2.78;;;;;;;-146.25;100.00;57403.91;5047646;28;20215;-87
2023/06/18 12:56:19;;;;;;;7.07;3.22;;;;;;;-146.25;100.00;57403.91;5047610;28;20265;-86
2023/06/18 12:59:54;;;;;;;3.47;2.70;;;;;;;-146.25;100.00;57403.91;5047301;28;20213;-87
2023/06/18 13:03:22;;;;;;;3.10;2.80;;;;;;;-146.25;100.00;57403.91;5048136;28;20329;-85
2023/06/18 13:06:48;;;;;;;4.28;2.95;;;;;;;-146.25;100.00;57403.91;5048020;28;20243;-87
2023/06/18 13:10:14;;;;;;;3.42;3.22;;;;;;;-146.25;100.00;57403.91;5072186;28;20207;-86
2023/06/18 13:13:39;;;;;;;3.00;2.80;;;;;;;-146.25;100.00;57403.91;5060410;28;20235;-85
2023/06/18 13:17:05;;;;;;;3.17;2.97;;;;;;;-146.25;100.00;57403.91;5047861;28;20270;-86
2023/06/18 13:20:33;;;;;;;3.85;2.60;;;;;;;-146.25;100.00;57403.91;5046633;28;20644;-86
2023/06/18 13:23:59;;;;;;;3.85;3.58;;;;;;;-146.25;100.00;57403.91;5046873;28;20207;-87
2023/06/18 13:27:25;;;;;;;5.25;3.10;;;;;;;-146.25;100.00;57403.91;5046972;28;20265;-87
2023/06/18 13:31:08;;;;;;;2.95;2.75;;;;;;;-146.25;100.00;57403.91;5046591;28;20507;-85
2023/06/18 13:34:36;;;;;;;2.78;2.58;;;;;;;-146.25;100.00;57403.91;5046376;28;20295;-87
2023/06/18 13:38:02;;;;;;;2.88;2.67;;;;;;;-146.25;100.00;57403.91;5046557;28;20214;-87
2023/06/18 13:41:27;;;;;;;2.83;2.63;;;;;;;-146.25;100.00;57403.91;5046637;28;20211;-88
2023/06/18 13:44:53;;;;;;;3.75;3.33;;;;;;;-146.25;100.00;57403.91;5050754;28;20632;-86
2023/06/18 13:48:19;;;;;;;2.80;2.60;;;;;;;-146.25;100.00;57403.91;5050169;28;20223;-86
2023/06/18 13:51:46;;;;;;;2.85;2.65;;;;;;;-146.25;100.00;57403.91;5051036;28;20250;-87
2023/06/18 13:55:12;;;;;;;3.35;3.15;;;;;;;-146.25;100.00;57403.91;5049541;28;20776;-86
2023/06/18 13:58:38;;;;;;;3.30;3.10;;;;;;;-146.25;100.00;57403.91;5050037;28;20208;-88
2023/06/18 14:02:07;;;;;;;3.55;2.83;;;;;;;-146.25;100.00;57403.91;5050652;28;20199;-86
2023/06/18 14:05:35;;;;;;;2.38;2.17;;;;;;;-146.25;100.00;57403.91;5050301;28;20202;-87
2023/06/18 14:09:05;;;;;;;3.10;2.90;;;;;;;-146.25;100.00;57403.91;5049813;28;20289;-86
2023/06/18 14:12:31;;;;;;;3.22;2.90;;;;;;;-146.25;100.00;57403.91;5050262;28;20261;-86
2023/06/18 14:15:57;;;;;;;2.53;2.42;;;;;;;-146.25;100.00;57403.91;5051613;28;20207;-88
2023/06/18 14:19:24;;;;;;;2.78;2.65;;;;;;;-146.25;100.00;57403.91;5051992;28;20680;-86
2023/06/18 14:22:50;;;;;;;2.28;2.08;;;;;;;-146.25;100.00;57403.91;5050257;28;20204;-86
2023/06/18 14:26:19;;;;;;;3.92;2.22;;;;;;;-146.25;100.00;57403.91;5049354;28;20250;-88
2023/06/18 14:29:45;;;;;;;5.85;2.65;;;;;;;-146.25;100.00;57403.91;5049758;28;20660;-87
2023/06/18 14:33:11;;;;;;;2.65;2.40;;;;;;;-146.25;100.00;57403.91;5048953;28;20200;-87
2023/06/18 14:36:37;;;;;;;2.13;2.03;;;;;;;-146.25;100.00;57403.91;5049512;28;20207;-87
2023/06/18 14:40:04;;;;;;;2.15;2.05;;;;;;;-146.25;100.00;57403.91;5049410;28;20734;-88
2023/06/18 14:43:31;;;;;;;2.45;2.25;;;;;;;-146.25;100.00;57403.91;5049137;28;20207;-87
2023/06/18 14:46:57;;;;;;;2.30;2.20;;;;;;;-146.25;100.00;57403.91;5049589;28;20208;-86
2023/06/18 14:50:23;;;;;;;2.58;2.45;;;;;;;-146.25;100.00;57403.91;5049680;28;20309;-86
2023/06/18 14:53:51;;;;;;;2.70;2.53;;;;;;;-146.25;100.00;57403.91;5049288;28;20586;-86
2023/06/18 14:57:18;;;;;;;2.88;2.67;;;;;;;-146.25;100.00;57403.91;5048433;28;20207;-85
2023/06/18 15:00:45;;;;;;;2.47;2.38;;;;;;;-146.25;100.00;57403.91;5049505;28;20204;-87
2023/06/18 15:04:11;;;;;;;3.97;2.72;;;;;;;-146.25;100.00;57403.91;5049517;28;20207;-86
2023/06/18 15:07:36;;;;;;;2.25;2.15;;;;;;;-146.25;100.00;57403.91;5049180;28;20241;-86
2023/06/18 15:11:02;;;;;;;3.00;2.72;;;;;;;-146.25;100.00;57403.91;5048735;28;20207;-87
2023/06/18 15:14:28;;;;;;;2.60;2.50;;;;;;;-146.25;100.00;57403.91;5049305;28;20207;-87
2023/06/18 15:17:55;;;;;;;14.10;7.43;;;;;;;-146.25;100.00;57403.91;5049069;28;20546;-86
2023/06/18 15:21:21;;;;;;;4.70;3.15;;;;;;;-146.25;100.00;57403.91;5048372;28;20663;-87
2023/06/18 15:24:47;;;;;;;3.38;3.05;;;;;;;-146.25;100.00;57403.91;5048456;28;20622;-88
2023/06/18 15:28:12;;;;;;;2.30;2.15;;;;;;;-146.25;100.00;57403.91;5048241;28;20227;-87
2023/06/18 15:31:38;;;;;;;3.58;3.28;;;;;;;-146.25;100.00;57403.91;5048966;28;20246;-87
2023/06/18 15:35:06;;;;;;;3.20;3.00;;;;;;;-146.25;100.00;57403.91;5048519;28;21170;-86
2023/06/18 15:38:32;;;;;;;6.72;4.82;;;;;;;-146.25;100.00;57403.91;5048455;28;20194;-88
2023/06/18 15:42:00;;;;;;;3.35;3.10;;;;;;;-146.25;100.00;57403.91;5047734;28;20597;-87
2023/06/18 15:45:27;;;;;;;9.70;3.35;;;;;;;-146.25;100.00;57403.91;5047840;28;20236;-86
2023/06/18 15:48:52;;;;;;;3.20;3.08;;;;;;;-146.25;100.00;57403.91;5039865;28;20239;-86